sensor_id;sensor_type;location;lat;lon;timestamp;pressure;altitude;pressure_sealevel;temperature;humidity
10392;BME280;5242;49.244;6.774;2023-01-29T00:06:49;100904.13;;;-0.20;nan
10392;BME280;5242;49.244;6.774;2023-01-29T00:14:41;100899.78;;;-0.27;nan
10392;BME280;5242;49.244;6.774;2023-01-29T00:22:32;100901.75;;;-0.39;nan
10392;BME280;5242;49.244;6.774;2023-01-29T00:30:24;100890.41;;;-0.46;nan
10392;BME280;5242;49.244;6.774;2023-01-29T00:38:16;100885.88;;;-0.46;nan
10392;BME280;5242;49.244;6.774;2023-01-29T00:46:08;100878.97;;;-0.41;nan
10392;BME280;5242;49.244;6.774;2023-01-29T00:54:00;100873.38;;;-0.40;nan
10392;BME280;5242;49.244;6.774;2023-01-29T01:01:52;100880.19;;;-0.49;nan
10392;BME280;5242;49.244;6.774;2023-01-29T01:10:02;100897.41;;;-0.62;nan
10392;BME280;5242;49.244;6.774;2023-01-29T01:18:12;100898.06;;;-0.72;nan
10392;BME280;5242;49.244;6.774;2023-01-29T01:26:09;100903.91;;;-0.75;nan
10392;BME280;5242;49.244;6.774;2023-01-29T01:34:01;100906.50;;;-0.80;nan
10392;BME280;5242;49.244;6.774;2023-01-29T01:41:53;100899.22;;;-0.84;nan
10392;BME280;5242;49.244;6.774;2023-01-29T01:49:46;100911.22;;;-0.87;nan
10392;BME280;5242;49.244;6.774;2023-01-29T01:57:38;100882.19;;;-0.95;nan
10392;BME280;5242;49.244;6.774;2023-01-29T02:05:33;100871.91;;;-1.03;nan
10392;BME280;5242;49.244;6.774;2023-01-29T02:13:44;100878.16;;;-1.15;nan
10392;BME280;5242;49.244;6.774;2023-01-29T02:22:05;100879.28;;;-1.27;nan
10392;BME280;5242;49.244;6.774;2023-01-29T02:30:16;100883.00;;;-1.45;nan
10392;BME280;5242;49.244;6.774;2023-01-29T02:38:11;100873.41;;;-1.58;nan
10392;BME280;5242;49.244;6.774;2023-01-29T02:46:29;100867.06;;;-1.69;nan
10392;BME280;5242;49.244;6.774;2023-01-29T03:02:43;100850.19;;;-1.86;nan
10392;BME280;5242;49.244;6.774;2023-01-29T03:10:39;100870.31;;;-1.95;nan
10392;BME280;5242;49.244;6.774;2023-01-29T03:18:40;100875.31;;;-1.99;nan
10392;BME280;5242;49.244;6.774;2023-01-29T03:26:40;100865.34;;;-2.04;nan
10392;BME280;5242;49.244;6.774;2023-01-29T03:34:57;100863.06;;;-2.12;nan
10392;BME280;5242;49.244;6.774;2023-01-29T03:43:29;100882.56;;;-2.23;nan
10392;BME280;5242;49.244;6.774;2023-01-29T03:59:52;100894.09;;;-2.46;nan
10392;BME280;5242;49.244;6.774;2023-01-29T04:07:53;100882.97;;;-2.55;nan
10392;BME280;5242;49.244;6.774;2023-01-29T04:15:54;100887.03;;;-2.64;nan
10392;BME280;5242;49.244;6.774;2023-01-29T04:23:47;100876.00;;;-2.79;nan
10392;BME280;5242;49.244;6.774;2023-01-29T04:32:02;100870.22;;;-2.88;nan
10392;BME280;5242;49.244;6.774;2023-01-29T04:40:10;100865.00;;;-2.95;nan
10392;BME280;5242;49.244;6.774;2023-01-29T04:48:26;100855.25;;;-3.01;nan
10392;BME280;5242;49.244;6.774;2023-01-29T05:04:51;100878.75;;;-3.10;nan
10392;BME280;5242;49.244;6.774;2023-01-29T05:12:47;100885.81;;;-3.15;nan
10392;BME280;5242;49.244;6.774;2023-01-29T05:20:42;100884.91;;;-3.21;nan
10392;BME280;5242;49.244;6.774;2023-01-29T05:28:34;100866.34;;;-3.28;nan
10392;BME280;5242;49.244;6.774;2023-01-29T05:36:26;100876.75;;;-3.38;nan
10392;BME280;5242;49.244;6.774;2023-01-29T05:44:18;100889.66;;;-3.53;nan
10392;BME280;5242;49.244;6.774;2023-01-29T05:52:10;100877.25;;;-3.59;nan
10392;BME280;5242;49.244;6.774;2023-01-29T06:00:03;100870.75;;;-3.63;nan
10392;BME280;5242;49.244;6.774;2023-01-29T06:07:55;100878.63;;;-3.68;nan
10392;BME280;5242;49.244;6.774;2023-01-29T06:15:47;100877.31;;;-3.78;nan
10392;BME280;5242;49.244;6.774;2023-01-29T06:23:40;100877.06;;;-3.76;nan
10392;BME280;5242;49.244;6.774;2023-01-29T06:31:31;100890.84;;;-3.79;nan
10392;BME280;5242;49.244;6.774;2023-01-29T06:39:29;100893.16;;;-3.83;nan
10392;BME280;5242;49.244;6.774;2023-01-29T06:47:22;100896.28;;;-3.86;nan
10392;BME280;5242;49.244;6.774;2023-01-29T06:55:14;100890.94;;;-3.86;nan
10392;BME280;5242;49.244;6.774;2023-01-29T07:03:08;100882.81;;;-3.91;nan
10392;BME280;5242;49.244;6.774;2023-01-29T07:11:02;100890.81;;;-3.91;nan
10392;BME280;5242;49.244;6.774;2023-01-29T07:18:53;100898.94;;;-3.86;nan
10392;BME280;5242;49.244;6.774;2023-01-29T07:26:45;100906.09;;;-3.86;nan
10392;BME280;5242;49.244;6.774;2023-01-29T07:34:37;100906.00;;;-3.80;nan
10392;BME280;5242;49.244;6.774;2023-01-29T07:42:29;100895.63;;;-3.69;nan
10392;BME280;5242;49.244;6.774;2023-01-29T07:50:22;100890.31;;;-3.69;nan
10392;BME280;5242;49.244;6.774;2023-01-29T07:58:15;100895.19;;;-3.66;nan
10392;BME280;5242;49.244;6.774;2023-01-29T08:06:07;100917.09;;;-3.64;nan
10392;BME280;5242;49.244;6.774;2023-01-29T08:13:59;100939.66;;;-3.37;nan
10392;BME280;5242;49.244;6.774;2023-01-29T08:21:51;100933.91;;;-0.90;nan
10392;BME280;5242;49.244;6.774;2023-01-29T08:29:42;100922.81;;;3.86;nan
10392;BME280;5242;49.244;6.774;2023-01-29T08:37:34;100918.31;;;7.44;nan
10392;BME280;5242;49.244;6.774;2023-01-29T08:45:26;100902.53;;;9.55;nan
10392;BME280;5242;49.244;6.774;2023-01-29T08:53:18;100919.66;;;10.87;nan
10392;BME280;5242;49.244;6.774;2023-01-29T09:01:16;100905.66;;;11.24;nan
10392;BME280;5242;49.244;6.774;2023-01-29T09:09:08;100874.88;;;11.15;nan
10392;BME280;5242;49.244;6.774;2023-01-29T09:17:00;100879.84;;;11.13;nan
10392;BME280;5242;49.244;6.774;2023-01-29T09:24:53;100871.13;;;11.37;nan
10392;BME280;5242;49.244;6.774;2023-01-29T09:32:45;100884.41;;;13.44;nan
10392;BME280;5242;49.244;6.774;2023-01-29T09:41:20;100892.25;;;11.95;nan
10392;BME280;5242;49.244;6.774;2023-01-29T09:49:24;100894.47;;;10.38;nan
10392;BME280;5242;49.244;6.774;2023-01-29T09:57:24;100888.22;;;9.41;nan
10392;BME280;5242;49.244;6.774;2023-01-29T10:05:43;100897.38;;;6.84;nan
10392;BME280;5242;49.244;6.774;2023-01-29T10:13:48;100901.00;;;5.16;nan
10392;BME280;5242;49.244;6.774;2023-01-29T10:22:05;100905.66;;;4.76;nan
10392;BME280;5242;49.244;6.774;2023-01-29T10:30:05;100890.41;;;3.96;nan
10392;BME280;5242;49.244;6.774;2023-01-29T10:38:11;100896.50;;;3.37;nan
10392;BME280;5242;49.244;6.774;2023-01-29T10:54:41;100891.69;;;3.29;nan
10392;BME280;5242;49.244;6.774;2023-01-29T11:02:35;100883.09;;;3.06;nan
10392;BME280;5242;49.244;6.774;2023-01-29T11:10:29;100863.13;;;3.38;nan
10392;BME280;5242;49.244;6.774;2023-01-29T11:18:23;100854.97;;;3.68;nan
10392;BME280;5242;49.244;6.774;2023-01-29T11:26:20;100837.59;;;3.95;nan
10392;BME280;5242;49.244;6.774;2023-01-29T11:34:20;100821.41;;;4.00;nan
10392;BME280;5242;49.244;6.774;2023-01-29T11:42:20;100804.66;;;4.03;nan
10392;BME280;5242;49.244;6.774;2023-01-29T11:50:20;100783.66;;;4.00;nan
10392;BME280;5242;49.244;6.774;2023-01-29T11:58:17;100770.81;;;3.82;nan
10392;BME280;5242;49.244;6.774;2023-01-29T12:06:18;100756.56;;;3.76;nan
10392;BME280;5242;49.244;6.774;2023-01-29T12:14:30;100753.69;;;3.57;nan
10392;BME280;5242;49.244;6.774;2023-01-29T12:38:22;100732.81;;;4.23;nan
10392;BME280;5242;49.244;6.774;2023-01-29T12:46:21;100729.78;;;3.95;nan
10392;BME280;5242;49.244;6.774;2023-01-29T12:54:26;100709.81;;;3.96;nan
10392;BME280;5242;49.244;6.774;2023-01-29T13:10:53;100706.09;;;3.37;nan
10392;BME280;5242;49.244;6.774;2023-01-29T13:18:47;100696.34;;;2.87;nan
10392;BME280;5242;49.244;6.774;2023-01-29T13:26:45;100681.34;;;2.45;nan
10392;BME280;5242;49.244;6.774;2023-01-29T13:34:45;100680.03;;;2.32;nan
10392;BME280;5242;49.244;6.774;2023-01-29T13:42:44;100669.56;;;2.35;nan
10392;BME280;5242;49.244;6.774;2023-01-29T13:50:40;100681.66;;;2.33;nan
10392;BME280;5242;49.244;6.774;2023-01-29T14:06:46;100680.81;;;2.27;nan
10392;BME280;5242;49.244;6.774;2023-01-29T14:22:39;100655.59;;;2.18;nan
10392;BME280;5242;49.244;6.774;2023-01-29T14:30:33;100653.44;;;1.94;nan
10392;BME280;5242;49.244;6.774;2023-01-29T14:38:27;100653.13;;;1.60;nan
10392;BME280;5242;49.244;6.774;2023-01-29T14:54:26;100652.75;;;1.16;nan
10392;BME280;5242;49.244;6.774;2023-01-29T15:02:24;100648.94;;;1.06;nan
10392;BME280;5242;49.244;6.774;2023-01-29T15:10:22;100650.53;;;0.97;nan
10392;BME280;5242;49.244;6.774;2023-01-29T15:18:18;100644.84;;;0.89;nan
10392;BME280;5242;49.244;6.774;2023-01-29T15:26:20;100649.53;;;0.61;nan
10392;BME280;5242;49.244;6.774;2023-01-29T15:34:12;100659.88;;;0.42;nan
10392;BME280;5242;49.244;6.774;2023-01-29T15:42:14;100654.19;;;0.28;nan
10392;BME280;5242;49.244;6.774;2023-01-29T15:50:14;100658.56;;;0.07;nan
10392;BME280;5242;49.244;6.774;2023-01-29T15:58:12;100650.94;;;-0.06;nan
10392;BME280;5242;49.244;6.774;2023-01-29T16:06:06;100635.88;;;-0.17;nan
10392;BME280;5242;49.244;6.774;2023-01-29T16:14:00;100636.28;;;-0.31;nan
10392;BME280;5242;49.244;6.774;2023-01-29T16:21:58;100632.88;;;-0.53;nan
10392;BME280;5242;49.244;6.774;2023-01-29T16:29:51;100617.69;;;-0.70;nan
10392;BME280;5242;49.244;6.774;2023-01-29T16:37:49;100621.22;;;-0.64;nan
10392;BME280;5242;49.244;6.774;2023-01-29T16:45:41;100627.09;;;-0.94;nan
10392;BME280;5242;49.244;6.774;2023-01-29T16:53:34;100625.78;;;-1.14;nan
10392;BME280;5242;49.244;6.774;2023-01-29T17:01:27;100639.00;;;-1.24;nan
10392;BME280;5242;49.244;6.774;2023-01-29T17:17:19;100639.34;;;-1.59;nan
10392;BME280;5242;49.244;6.774;2023-01-29T17:25:14;100659.53;;;-1.68;nan
10392;BME280;5242;49.244;6.774;2023-01-29T17:33:11;100656.94;;;-1.80;nan
10392;BME280;5242;49.244;6.774;2023-01-29T17:41:26;100657.66;;;-1.85;nan
10392;BME280;5242;49.244;6.774;2023-01-29T17:49:26;100657.84;;;-1.91;nan
10392;BME280;5242;49.244;6.774;2023-01-29T17:57:19;100664.22;;;-1.92;nan
10392;BME280;5242;49.244;6.774;2023-01-29T18:05:12;100664.84;;;-2.02;nan
10392;BME280;5242;49.244;6.774;2023-01-29T18:13:04;100673.16;;;-2.15;nan
10392;BME280;5242;49.244;6.774;2023-01-29T18:20:56;100673.72;;;-2.30;nan
10392;BME280;5242;49.244;6.774;2023-01-29T18:28:48;100674.19;;;-2.33;nan
10392;BME280;5242;49.244;6.774;2023-01-29T18:36:40;100674.59;;;-2.42;nan
10392;BME280;5242;49.244;6.774;2023-01-29T18:44:37;100664.31;;;-2.50;nan
10392;BME280;5242;49.244;6.774;2023-01-29T18:52:29;100659.56;;;-2.48;nan
10392;BME280;5242;49.244;6.774;2023-01-29T19:00:21;100657.81;;;-2.54;nan
10392;BME280;5242;49.244;6.774;2023-01-29T19:08:13;100665.72;;;-2.59;nan
10392;BME280;5242;49.244;6.774;2023-01-29T19:16:09;100667.50;;;-2.65;nan
10392;BME280;5242;49.244;6.774;2023-01-29T19:24:02;100667.06;;;-2.73;nan
10392;BME280;5242;49.244;6.774;2023-01-29T19:31:54;100659.53;;;-2.76;nan
10392;BME280;5242;49.244;6.774;2023-01-29T19:39:46;100664.44;;;-2.85;nan
10392;BME280;5242;49.244;6.774;2023-01-29T19:47:40;100657.63;;;-2.93;nan
10392;BME280;5242;49.244;6.774;2023-01-29T19:55:33;100664.94;;;-3.00;nan
10392;BME280;5242;49.244;6.774;2023-01-29T20:03:26;100662.44;;;-3.18;nan
10392;BME280;5242;49.244;6.774;2023-01-29T20:11:20;100664.72;;;-3.10;nan
10392;BME280;5242;49.244;6.774;2023-01-29T20:19:12;100661.34;;;-2.94;nan
10392;BME280;5242;49.244;6.774;2023-01-29T20:27:05;100660.75;;;-2.96;nan
10392;BME280;5242;49.244;6.774;2023-01-29T20:34:57;100647.09;;;-2.99;nan
10392;BME280;5242;49.244;6.774;2023-01-29T20:42:50;100631.03;;;-3.16;nan
10392;BME280;5242;49.244;6.774;2023-01-29T20:50:42;100631.63;;;-3.26;nan
10392;BME280;5242;49.244;6.774;2023-01-29T20:58:35;100631.84;;;-3.28;nan
10392;BME280;5242;49.244;6.774;2023-01-29T21:06:27;100606.38;;;-3.23;nan
10392;BME280;5242;49.244;6.774;2023-01-29T21:14:21;100599.53;;;-3.19;nan
10392;BME280;5242;49.244;6.774;2023-01-29T21:22:13;100595.44;;;-3.10;nan
10392;BME280;5242;49.244;6.774;2023-01-29T21:30:05;100580.78;;;-2.96;nan
10392;BME280;5242;49.244;6.774;2023-01-29T21:37:57;100561.97;;;-2.89;nan
10392;BME280;5242;49.244;6.774;2023-01-29T21:45:57;100559.34;;;-2.72;nan
10392;BME280;5242;49.244;6.774;2023-01-29T21:53:49;100560.84;;;-2.48;nan
10392;BME280;5242;49.244;6.774;2023-01-29T22:01:41;100552.41;;;-2.23;nan
10392;BME280;5242;49.244;6.774;2023-01-29T22:09:33;100547.13;;;-2.01;nan
10392;BME280;5242;49.244;6.774;2023-01-29T22:17:25;100533.44;;;-1.87;nan
10392;BME280;5242;49.244;6.774;2023-01-29T22:25:16;100526.69;;;-1.73;nan
10392;BME280;5242;49.244;6.774;2023-01-29T22:33:10;100523.03;;;-1.67;nan
10392;BME280;5242;49.244;6.774;2023-01-29T22:41:02;100514.56;;;-1.59;nan
10392;BME280;5242;49.244;6.774;2023-01-29T22:48:55;100513.25;;;-1.34;nan
10392;BME280;5242;49.244;6.774;2023-01-29T22:56:47;100511.94;;;-1.10;nan
10392;BME280;5242;49.244;6.774;2023-01-29T23:04:39;100531.38;;;-0.87;nan
10392;BME280;5242;49.244;6.774;2023-01-29T23:12:31;100514.94;;;-0.74;nan
10392;BME280;5242;49.244;6.774;2023-01-29T23:20:23;100501.06;;;-0.71;nan
10392;BME280;5242;49.244;6.774;2023-01-29T23:28:15;100506.97;;;-0.69;nan
10392;BME280;5242;49.244;6.774;2023-01-29T23:36:07;100493.28;;;-0.72;nan
10392;BME280;5242;49.244;6.774;2023-01-29T23:43:59;100481.53;;;-0.71;nan
10392;BME280;5242;49.244;6.774;2023-01-29T23:51:50;100502.97;;;-0.66;nan
10392;BME280;5242;49.244;6.774;2023-01-29T23:59:42;100496.81;;;-0.61;nan
